sensor_id;sensor_type;location;lat;lon;timestamp;pressure;altitude;pressure_sealevel;temperature;humidity
21574;BME280;10948;48.706;9.258;2023-08-30T00:00:02;97199.28;;;14.07;100.00
21574;BME280;10948;48.706;9.258;2023-08-30T00:02:27;97209.91;;;14.05;100.00
21574;BME280;10948;48.706;9.258;2023-08-30T00:04:57;97204.91;;;14.02;100.00
21574;BME280;10948;48.706;9.258;2023-08-30T00:07:22;97202.69;;;13.98;100.00
21574;BME280;10948;48.706;9.258;2023-08-30T00:09:48;97201.34;;;14.03;100.00
21574;BME280;10948;48.706;9.258;2023-08-30T00:12:13;97194.13;;;13.96;100.00
21574;BME280;10948;48.706;9.258;2023-08-30T00:14:38;97196.88;;;13.94;100.00
21574;BME280;10948;48.706;9.258;2023-08-30T00:17:04;97194.31;;;14.04;100.00
21574;BME280;10948;48.706;9.258;2023-08-30T00:19:29;97195.28;;;14.03;100.00
21574;BME280;10948;48.706;9.258;2023-08-30T00:21:55;97193.69;;;13.91;100.00
21574;BME280;10948;48.706;9.258;2023-08-30T00:24:22;97186.06;;;13.88;100.00
21574;BME280;10948;48.706;9.258;2023-08-30T00:26:47;97188.38;;;14.02;100.00
21574;BME280;10948;48.706;9.258;2023-08-30T00:29:12;97189.59;;;13.98;100.00
21574;BME280;10948;48.706;9.258;2023-08-30T00:31:37;97190.72;;;13.84;100.00
21574;BME280;10948;48.706;9.258;2023-08-30T00:34:03;97184.22;;;13.79;100.00
21574;BME280;10948;48.706;9.258;2023-08-30T00:36:28;97177.78;;;13.83;100.00
21574;BME280;10948;48.706;9.258;2023-08-30T00:38:53;97166.50;;;13.82;100.00
21574;BME280;10948;48.706;9.258;2023-08-30T00:41:18;97167.25;;;13.73;100.00
21574;BME280;10948;48.706;9.258;2023-08-30T00:43:44;97164.00;;;13.81;100.00
21574;BME280;10948;48.706;9.258;2023-08-30T00:46:09;97169.41;;;13.68;100.00
21574;BME280;10948;48.706;9.258;2023-08-30T00:48:34;97167.25;;;13.73;100.00
21574;BME280;10948;48.706;9.258;2023-08-30T00:50:59;97157.28;;;13.67;100.00
21574;BME280;10948;48.706;9.258;2023-08-30T00:53:25;97164.63;;;13.73;100.00
21574;BME280;10948;48.706;9.258;2023-08-30T00:55:50;97155.25;;;13.71;100.00
21574;BME280;10948;48.706;9.258;2023-08-30T00:58:15;97152.63;;;13.71;100.00
21574;BME280;10948;48.706;9.258;2023-08-30T01:00:41;97157.28;;;13.67;100.00
21574;BME280;10948;48.706;9.258;2023-08-30T01:03:06;97150.16;;;13.69;100.00
21574;BME280;10948;48.706;9.258;2023-08-30T01:05:32;97144.78;;;13.71;100.00
21574;BME280;10948;48.706;9.258;2023-08-30T01:07:58;97139.88;;;13.57;100.00
21574;BME280;10948;48.706;9.258;2023-08-30T01:10:27;97141.66;;;13.56;100.00
21574;BME280;10948;48.706;9.258;2023-08-30T01:12:59;97139.88;;;13.57;100.00
21574;BME280;10948;48.706;9.258;2023-08-30T01:15:28;97131.56;;;13.52;100.00
21574;BME280;10948;48.706;9.258;2023-08-30T01:17:53;97136.53;;;13.55;100.00
21574;BME280;10948;48.706;9.258;2023-08-30T01:20:20;97131.56;;;13.52;100.00
21574;BME280;10948;48.706;9.258;2023-08-30T01:27:57;97138.38;;;13.43;100.00
21574;BME280;10948;48.706;9.258;2023-08-30T01:30:23;97134.47;;;13.38;100.00
21574;BME280;10948;48.706;9.258;2023-08-30T01:32:49;97127.59;;;13.37;100.00
21574;BME280;10948;48.706;9.258;2023-08-30T01:35:15;97136.41;;;13.36;100.00
21574;BME280;10948;48.706;9.258;2023-08-30T01:37:43;97137.78;;;13.40;100.00
21574;BME280;10948;48.706;9.258;2023-08-30T01:40:09;97140.50;;;13.38;100.00
21574;BME280;10948;48.706;9.258;2023-08-30T01:42:35;97138.06;;;13.37;100.00
21574;BME280;10948;48.706;9.258;2023-08-30T01:45:01;97137.38;;;13.24;100.00
21574;BME280;10948;48.706;9.258;2023-08-30T01:47:28;97142.13;;;13.30;100.00
21574;BME280;10948;48.706;9.258;2023-08-30T01:49:54;97137.22;;;13.36;100.00
21574;BME280;10948;48.706;9.258;2023-08-30T01:52:21;97139.22;;;13.44;100.00
21574;BME280;10948;48.706;9.258;2023-08-30T01:54:46;97143.84;;;13.40;100.00
21574;BME280;10948;48.706;9.258;2023-08-30T01:57:12;97139.72;;;13.38;100.00
21574;BME280;10948;48.706;9.258;2023-08-30T01:59:38;97143.28;;;13.37;100.00
21574;BME280;10948;48.706;9.258;2023-08-30T02:02:03;97153.97;;;13.34;100.00
21574;BME280;10948;48.706;9.258;2023-08-30T02:04:29;97149.47;;;13.25;100.00
21574;BME280;10948;48.706;9.258;2023-08-30T02:06:56;97146.47;;;13.40;100.00
21574;BME280;10948;48.706;9.258;2023-08-30T02:11:57;97154.72;;;13.14;100.00
21574;BME280;10948;48.706;9.258;2023-08-30T02:14:25;97155.00;;;13.11;100.00
21574;BME280;10948;48.706;9.258;2023-08-30T02:16:51;97154.44;;;13.28;100.00
21574;BME280;10948;48.706;9.258;2023-08-30T02:19:17;97148.16;;;13.30;100.00
21574;BME280;10948;48.706;9.258;2023-08-30T02:21:45;97149.84;;;13.20;100.00
21574;BME280;10948;48.706;9.258;2023-08-30T02:24:11;97151.41;;;13.23;100.00
21574;BME280;10948;48.706;9.258;2023-08-30T02:26:36;97153.06;;;13.24;100.00
21574;BME280;10948;48.706;9.258;2023-08-30T02:29:01;97149.41;;;13.15;100.00
21574;BME280;10948;48.706;9.258;2023-08-30T02:31:27;97145.44;;;13.21;100.00
21574;BME280;10948;48.706;9.258;2023-08-30T02:33:53;97155.53;;;13.25;100.00
21574;BME280;10948;48.706;9.258;2023-08-30T02:36:19;97154.50;;;13.17;100.00
21574;BME280;10948;48.706;9.258;2023-08-30T02:38:44;97156.47;;;13.35;100.00
21574;BME280;10948;48.706;9.258;2023-08-30T02:41:09;97153.06;;;13.24;100.00
21574;BME280;10948;48.706;9.258;2023-08-30T02:43:35;97158.03;;;13.27;100.00
21574;BME280;10948;48.706;9.258;2023-08-30T02:46:00;97148.72;;;13.34;100.00
21574;BME280;10948;48.706;9.258;2023-08-30T02:48:26;97157.56;;;13.22;100.00
21574;BME280;10948;48.706;9.258;2023-08-30T02:50:51;97155.38;;;13.38;100.00
21574;BME280;10948;48.706;9.258;2023-08-30T02:53:17;97153.16;;;13.22;100.00
21574;BME280;10948;48.706;9.258;2023-08-30T02:55:42;97156.38;;;13.26;100.00
21574;BME280;10948;48.706;9.258;2023-08-30T02:58:07;97155.41;;;13.27;100.00
21574;BME280;10948;48.706;9.258;2023-08-30T03:00:32;97153.97;;;13.34;100.00
21574;BME280;10948;48.706;9.258;2023-08-30T03:02:59;97166.34;;;13.32;100.00
21574;BME280;10948;48.706;9.258;2023-08-30T03:05:24;97161.59;;;13.26;100.00
21574;BME280;10948;48.706;9.258;2023-08-30T03:07:50;97154.16;;;13.42;100.00
21574;BME280;10948;48.706;9.258;2023-08-30T03:10:16;97159.91;;;13.36;100.00
21574;BME280;10948;48.706;9.258;2023-08-30T03:12:42;97146.84;;;13.36;100.00
21574;BME280;10948;48.706;9.258;2023-08-30T03:15:07;97147.53;;;13.38;100.00
21574;BME280;10948;48.706;9.258;2023-08-30T03:17:32;97144.44;;;13.44;100.00
21574;BME280;10948;48.706;9.258;2023-08-30T03:19:57;97139.00;;;13.36;100.00
21574;BME280;10948;48.706;9.258;2023-08-30T03:22:23;97143.06;;;13.29;100.00
21574;BME280;10948;48.706;9.258;2023-08-30T03:24:48;97143.50;;;13.34;100.00
21574;BME280;10948;48.706;9.258;2023-08-30T03:27:15;97137.13;;;13.27;100.00
21574;BME280;10948;48.706;9.258;2023-08-30T03:29:41;97137.59;;;13.21;100.00
21574;BME280;10948;48.706;9.258;2023-08-30T03:32:06;97131.97;;;13.05;100.00
21574;BME280;10948;48.706;9.258;2023-08-30T03:34:31;97132.88;;;13.15;100.00
21574;BME280;10948;48.706;9.258;2023-08-30T03:36:56;97131.00;;;13.17;100.00
21574;BME280;10948;48.706;9.258;2023-08-30T03:39:21;97139.44;;;13.09;100.00
21574;BME280;10948;48.706;9.258;2023-08-30T03:41:47;97139.78;;;12.94;100.00
21574;BME280;10948;48.706;9.258;2023-08-30T03:44:12;97133.28;;;12.99;100.00
21574;BME280;10948;48.706;9.258;2023-08-30T03:46:38;97133.41;;;12.98;100.00
21574;BME280;10948;48.706;9.258;2023-08-30T03:49:03;97135.31;;;12.96;100.00
21574;BME280;10948;48.706;9.258;2023-08-30T03:51:28;97136.47;;;12.92;100.00
21574;BME280;10948;48.706;9.258;2023-08-30T03:53:54;97130.09;;;12.96;100.00
21574;BME280;10948;48.706;9.258;2023-08-30T03:56:21;97126.72;;;12.94;100.00
21574;BME280;10948;48.706;9.258;2023-08-30T03:58:46;97136.94;;;12.86;100.00
21574;BME280;10948;48.706;9.258;2023-08-30T04:01:11;97135.53;;;12.82;100.00
21574;BME280;10948;48.706;9.258;2023-08-30T04:03:36;97134.22;;;12.87;100.00
21574;BME280;10948;48.706;9.258;2023-08-30T04:06:02;97139.44;;;12.87;100.00
21574;BME280;10948;48.706;9.258;2023-08-30T04:08:27;97146.34;;;12.77;100.00
21574;BME280;10948;48.706;9.258;2023-08-30T04:10:52;97152.03;;;12.82;100.00
21574;BME280;10948;48.706;9.258;2023-08-30T04:13:18;97143.59;;;12.90;100.00
21574;BME280;10948;48.706;9.258;2023-08-30T04:15:44;97144.56;;;13.00;100.00
21574;BME280;10948;48.706;9.258;2023-08-30T04:18:09;97141.47;;;12.95;100.00
21574;BME280;10948;48.706;9.258;2023-08-30T04:20:34;97137.31;;;12.92;100.00
21574;BME280;10948;48.706;9.258;2023-08-30T04:22:59;97127.56;;;13.05;100.00
21574;BME280;10948;48.706;9.258;2023-08-30T04:25:28;97143.34;;;12.93;100.00
21574;BME280;10948;48.706;9.258;2023-08-30T04:27:54;97131.50;;;12.89;100.00
21574;BME280;10948;48.706;9.258;2023-08-30T04:30:19;97136.72;;;12.89;100.00
21574;BME280;10948;48.706;9.258;2023-08-30T04:32:44;97146.56;;;12.85;100.00
21574;BME280;10948;48.706;9.258;2023-08-30T04:35:09;97150.97;;;12.85;100.00
21574;BME280;10948;48.706;9.258;2023-08-30T04:37:35;97146.91;;;12.92;100.00
21574;BME280;10948;48.706;9.258;2023-08-30T04:40:00;97152.66;;;12.97;100.00
21574;BME280;10948;48.706;9.258;2023-08-30T04:42:26;97153.59;;;12.96;100.00
21574;BME280;10948;48.706;9.258;2023-08-30T04:44:51;97151.28;;;12.91;100.00
21574;BME280;10948;48.706;9.258;2023-08-30T04:47:19;97156.66;;;13.01;100.00
21574;BME280;10948;48.706;9.258;2023-08-30T04:49:44;97149.88;;;12.98;100.00
21574;BME280;10948;48.706;9.258;2023-08-30T04:52:14;97146.94;;;13.03;100.00
21574;BME280;10948;48.706;9.258;2023-08-30T04:54:39;97150.63;;;13.00;100.00
21574;BME280;10948;48.706;9.258;2023-08-30T04:57:06;97140.13;;;13.11;100.00
21574;BME280;10948;48.706;9.258;2023-08-30T04:59:31;97140.59;;;13.16;100.00
21574;BME280;10948;48.706;9.258;2023-08-30T05:01:57;97138.69;;;13.18;100.00
21574;BME280;10948;48.706;9.258;2023-08-30T05:04:22;97134.03;;;13.22;100.00
21574;BME280;10948;48.706;9.258;2023-08-30T05:06:47;97133.13;;;13.23;100.00
21574;BME280;10948;48.706;9.258;2023-08-30T05:09:12;97134.38;;;13.28;100.00
21574;BME280;10948;48.706;9.258;2023-08-30T05:11:38;97141.25;;;13.40;100.00
21574;BME280;10948;48.706;9.258;2023-08-30T05:14:03;97144.84;;;13.60;100.00
21574;BME280;10948;48.706;9.258;2023-08-30T05:16:28;97134.91;;;13.74;100.00
21574;BME280;10948;48.706;9.258;2023-08-30T05:18:53;97139.94;;;13.66;100.00
21574;BME280;10948;48.706;9.258;2023-08-30T05:21:19;97133.25;;;13.94;100.00
21574;BME280;10948;48.706;9.258;2023-08-30T05:23:44;97127.63;;;13.78;100.00
21574;BME280;10948;48.706;9.258;2023-08-30T05:26:10;97121.50;;;13.68;100.00
21574;BME280;10948;48.706;9.258;2023-08-30T05:28:37;97123.47;;;13.55;100.00
21574;BME280;10948;48.706;9.258;2023-08-30T05:31:02;97121.25;;;13.71;100.00
21574;BME280;10948;48.706;9.258;2023-08-30T05:33:28;97119.41;;;13.82;100.00
21574;BME280;10948;48.706;9.258;2023-08-30T05:35:53;97119.53;;;14.01;100.00
21574;BME280;10948;48.706;9.258;2023-08-30T05:38:18;97120.88;;;13.96;100.00
21574;BME280;10948;48.706;9.258;2023-08-30T05:40:44;97117.81;;;13.91;100.00
21574;BME280;10948;48.706;9.258;2023-08-30T05:43:10;97119.97;;;13.86;100.00
21574;BME280;10948;48.706;9.258;2023-08-30T05:45:35;97131.84;;;13.90;100.00
21574;BME280;10948;48.706;9.258;2023-08-30T05:48:00;97126.13;;;13.96;100.00
21574;BME280;10948;48.706;9.258;2023-08-30T05:50:25;97127.69;;;14.08;100.00
21574;BME280;10948;48.706;9.258;2023-08-30T05:52:51;97123.03;;;14.11;100.00
21574;BME280;10948;48.706;9.258;2023-08-30T05:55:16;97130.19;;;14.09;100.00
21574;BME280;10948;48.706;9.258;2023-08-30T05:57:41;97126.94;;;14.17;100.00
21574;BME280;10948;48.706;9.258;2023-08-30T06:00:07;97118.19;;;14.27;100.00
21574;BME280;10948;48.706;9.258;2023-08-30T06:02:33;97123.59;;;14.35;100.00
21574;BME280;10948;48.706;9.258;2023-08-30T06:04:58;97121.91;;;14.25;100.00
21574;BME280;10948;48.706;9.258;2023-08-30T06:07:24;97127.44;;;14.31;100.00
21574;BME280;10948;48.706;9.258;2023-08-30T06:09:49;97127.44;;;14.31;100.00
21574;BME280;10948;48.706;9.258;2023-08-30T06:12:14;97129.94;;;14.33;100.00
21574;BME280;10948;48.706;9.258;2023-08-30T06:14:39;97132.41;;;14.34;100.00
21574;BME280;10948;48.706;9.258;2023-08-30T06:17:05;97136.56;;;14.37;100.00
21574;BME280;10948;48.706;9.258;2023-08-30T06:19:30;97136.75;;;14.45;100.00
21574;BME280;10948;48.706;9.258;2023-08-30T06:21:55;97139.44;;;14.34;100.00
21574;BME280;10948;48.706;9.258;2023-08-30T06:24:21;97140.50;;;14.52;100.00
21574;BME280;10948;48.706;9.258;2023-08-30T06:26:46;97136.06;;;14.43;100.00
21574;BME280;10948;48.706;9.258;2023-08-30T06:29:11;97137.34;;;14.58;100.00
21574;BME280;10948;48.706;9.258;2023-08-30T06:31:37;97132.34;;;14.55;100.00
21574;BME280;10948;48.706;9.258;2023-08-30T06:34:04;97137.16;;;14.80;100.00
21574;BME280;10948;48.706;9.258;2023-08-30T06:36:29;97127.94;;;14.85;100.00
21574;BME280;10948;48.706;9.258;2023-08-30T06:38:54;97131.53;;;14.94;100.00
21574;BME280;10948;48.706;9.258;2023-08-30T06:41:20;97131.97;;;14.99;100.00
21574;BME280;10948;48.706;9.258;2023-08-30T06:43:45;97137.59;;;14.85;100.00
21574;BME280;10948;48.706;9.258;2023-08-30T06:46:10;97140.31;;;14.83;100.00
21574;BME280;10948;48.706;9.258;2023-08-30T06:48:35;97141.69;;;14.78;100.00
21574;BME280;10948;48.706;9.258;2023-08-30T06:51:01;97143.34;;;14.79;100.00
21574;BME280;10948;48.706;9.258;2023-08-30T06:53:26;97141.03;;;14.85;100.00
21574;BME280;10948;48.706;9.258;2023-08-30T06:56:01;97140.09;;;14.96;100.00
21574;BME280;10948;48.706;9.258;2023-08-30T06:58:26;97139.72;;;15.10;100.00
21574;BME280;10948;48.706;9.258;2023-08-30T07:00:52;97136.66;;;15.05;100.00
21574;BME280;10948;48.706;9.258;2023-08-30T07:03:17;97133.56;;;15.30;100.00
21574;BME280;10948;48.706;9.258;2023-08-30T07:05:43;97132.59;;;15.31;100.00
21574;BME280;10948;48.706;9.258;2023-08-30T07:08:09;97130.81;;;15.41;100.00
21574;BME280;10948;48.706;9.258;2023-08-30T07:10:35;97131.78;;;15.49;100.00
21574;BME280;10948;48.706;9.258;2023-08-30T07:13:00;97139.59;;;15.30;100.00
21574;BME280;10948;48.706;9.258;2023-08-30T07:15:25;97135.81;;;15.44;100.00
21574;BME280;10948;48.706;9.258;2023-08-30T07:17:50;97145.19;;;15.37;100.00
21574;BME280;10948;48.706;9.258;2023-08-30T07:20:16;97136.28;;;15.28;100.00
21574;BME280;10948;48.706;9.258;2023-08-30T07:22:41;97132.22;;;15.54;100.00
21574;BME280;10948;48.706;9.258;2023-08-30T07:25:06;97125.88;;;15.57;100.00
21574;BME280;10948;48.706;9.258;2023-08-30T07:27:33;97127.44;;;15.20;100.00
21574;BME280;10948;48.706;9.258;2023-08-30T07:29:59;97130.13;;;15.39;100.00
21574;BME280;10948;48.706;9.258;2023-08-30T07:32:24;97132.75;;;15.58;100.00
21574;BME280;10948;48.706;9.258;2023-08-30T07:34:49;97130.28;;;15.66;100.00
21574;BME280;10948;48.706;9.258;2023-08-30T07:37:20;97134.97;;;15.72;100.00
21574;BME280;10948;48.706;9.258;2023-08-30T07:39:46;97136.34;;;15.85;100.00
21574;BME280;10948;48.706;9.258;2023-08-30T07:42:11;97140.22;;;15.53;100.00
21574;BME280;10948;48.706;9.258;2023-08-30T07:44:36;97142.41;;;15.57;100.00
21574;BME280;10948;48.706;9.258;2023-08-30T07:47:02;97145.47;;;15.72;100.00
21574;BME280;10948;48.706;9.258;2023-08-30T07:49:28;97139.53;;;15.70;100.00
21574;BME280;10948;48.706;9.258;2023-08-30T07:51:53;97136.34;;;15.95;100.00
21574;BME280;10948;48.706;9.258;2023-08-30T07:54:18;97145.03;;;15.57;100.00
21574;BME280;10948;48.706;9.258;2023-08-30T07:56:43;97134.97;;;15.72;100.00
21574;BME280;10948;48.706;9.258;2023-08-30T07:59:09;97142.72;;;15.83;100.00
21574;BME280;10948;48.706;9.258;2023-08-30T08:01:34;97143.00;;;15.42;100.00
21574;BME280;10948;48.706;9.258;2023-08-30T08:03:59;97128.06;;;15.71;100.00
21574;BME280;10948;48.706;9.258;2023-08-30T08:06:25;97139.66;;;15.78;100.00
21574;BME280;10948;48.706;9.258;2023-08-30T08:08:50;97138.81;;;15.87;100.00
21574;BME280;10948;48.706;9.258;2023-08-30T08:11:15;97132.31;;;16.10;100.00
21574;BME280;10948;48.706;9.258;2023-08-30T08:13:40;97140.06;;;16.02;100.00
21574;BME280;10948;48.706;9.258;2023-08-30T08:16:06;97139.47;;;16.08;100.00
21574;BME280;10948;48.706;9.258;2023-08-30T08:18:32;97140.75;;;16.04;100.00
21574;BME280;10948;48.706;9.258;2023-08-30T08:20:57;97135.72;;;16.29;100.00
21574;BME280;10948;48.706;9.258;2023-08-30T08:23:22;97137.38;;;16.21;100.00
21574;BME280;10948;48.706;9.258;2023-08-30T08:25:47;97139.84;;;16.32;100.00
21574;BME280;10948;48.706;9.258;2023-08-30T08:28:13;97139.16;;;16.49;100.00
21574;BME280;10948;48.706;9.258;2023-08-30T08:30:38;97130.69;;;16.55;100.00
21574;BME280;10948;48.706;9.258;2023-08-30T08:33:03;97128.44;;;16.60;100.00
21574;BME280;10948;48.706;9.258;2023-08-30T08:35:29;97136.22;;;16.52;100.00
21574;BME280;10948;48.706;9.258;2023-08-30T08:37:54;97130.41;;;16.58;100.00
21574;BME280;10948;48.706;9.258;2023-08-30T08:40:19;97128.84;;;16.92;100.00
21574;BME280;10948;48.706;9.258;2023-08-30T08:42:44;97129.34;;;17.04;100.00
21574;BME280;10948;48.706;9.258;2023-08-30T08:45:10;97135.19;;;16.98;100.00
21574;BME280;10948;48.706;9.258;2023-08-30T08:47:38;97129.50;;;17.20;100.00
21574;BME280;10948;48.706;9.258;2023-08-30T08:50:04;97125.97;;;17.56;100.00
21574;BME280;10948;48.706;9.258;2023-08-30T08:52:30;97126.13;;;17.72;100.00
21574;BME280;10948;48.706;9.258;2023-08-30T08:54:55;97126.66;;;17.41;100.00
21574;BME280;10948;48.706;9.258;2023-08-30T08:57:21;97119.28;;;17.62;100.00
21574;BME280;10948;48.706;9.258;2023-08-30T08:59:47;97123.53;;;17.80;100.00
21574;BME280;10948;48.706;9.258;2023-08-30T09:02:13;97127.47;;;17.41;100.00
21574;BME280;10948;48.706;9.258;2023-08-30T09:04:39;97123.56;;;17.45;100.00
21574;BME280;10948;48.706;9.258;2023-08-30T09:07:04;97120.25;;;17.78;100.00
21574;BME280;10948;48.706;9.258;2023-08-30T09:09:29;97118.28;;;17.80;100.00
21574;BME280;10948;48.706;9.258;2023-08-30T09:11:55;97117.91;;;18.18;100.00
21574;BME280;10948;48.706;9.258;2023-08-30T09:14:21;97116.88;;;18.54;100.00
21574;BME280;10948;48.706;9.258;2023-08-30T09:16:58;97121.66;;;19.42;100.00
21574;BME280;10948;48.706;9.258;2023-08-30T09:19:25;97126.50;;;20.02;100.00
21574;BME280;10948;48.706;9.258;2023-08-30T09:21:54;97120.41;;;19.86;97.25
21574;BME280;10948;48.706;9.258;2023-08-30T09:24:19;97129.50;;;20.23;99.86
21574;BME280;10948;48.706;9.258;2023-08-30T09:26:48;97122.38;;;20.32;95.85
21574;BME280;10948;48.706;9.258;2023-08-30T09:29:17;97122.03;;;21.05;94.63
21574;BME280;10948;48.706;9.258;2023-08-30T09:31:43;97121.53;;;22.30;88.06
21574;BME280;10948;48.706;9.258;2023-08-30T09:34:08;97116.03;;;21.95;86.65
21574;BME280;10948;48.706;9.258;2023-08-30T09:36:39;97115.00;;;21.81;86.10
21574;BME280;10948;48.706;9.258;2023-08-30T09:39:14;97117.00;;;21.79;87.05
21574;BME280;10948;48.706;9.258;2023-08-30T09:41:46;97113.50;;;22.01;83.98
21574;BME280;10948;48.706;9.258;2023-08-30T09:44:12;97113.16;;;21.51;86.17
21574;BME280;10948;48.706;9.258;2023-08-30T09:49:12;97110.88;;;20.87;90.92
21574;BME280;10948;48.706;9.258;2023-08-30T09:51:38;97115.94;;;20.42;93.13
21574;BME280;10948;48.706;9.258;2023-08-30T09:54:06;97116.31;;;20.15;92.23
21574;BME280;10948;48.706;9.258;2023-08-30T09:56:32;97119.44;;;20.11;91.82
21574;BME280;10948;48.706;9.258;2023-08-30T09:59:00;97113.72;;;21.16;88.71
21574;BME280;10948;48.706;9.258;2023-08-30T10:01:27;97115.13;;;20.96;86.72
21574;BME280;10948;48.706;9.258;2023-08-30T10:03:53;97103.69;;;22.76;81.95
21574;BME280;10948;48.706;9.258;2023-08-30T10:06:19;97100.38;;;23.53;76.05
21574;BME280;10948;48.706;9.258;2023-08-30T10:08:46;97096.41;;;24.05;73.96
21574;BME280;10948;48.706;9.258;2023-08-30T10:11:14;97091.78;;;23.92;73.14
21574;BME280;10948;48.706;9.258;2023-08-30T10:13:39;97095.72;;;22.24;75.87
21574;BME280;10948;48.706;9.258;2023-08-30T10:16:07;97090.00;;;22.35;79.89
21574;BME280;10948;48.706;9.258;2023-08-30T10:18:33;97084.09;;;23.83;73.02
21574;BME280;10948;48.706;9.258;2023-08-30T10:21:00;97079.38;;;24.54;69.17
21574;BME280;10948;48.706;9.258;2023-08-30T10:23:27;97079.06;;;25.45;67.75
21574;BME280;10948;48.706;9.258;2023-08-30T10:25:53;97078.34;;;24.83;65.53
21574;BME280;10948;48.706;9.258;2023-08-30T10:28:19;97083.84;;;24.20;65.94
21574;BME280;10948;48.706;9.258;2023-08-30T10:30:46;97080.31;;;23.50;67.57
21574;BME280;10948;48.706;9.258;2023-08-30T10:33:11;97070.16;;;24.50;66.62
21574;BME280;10948;48.706;9.258;2023-08-30T10:35:46;97065.50;;;25.40;67.16
21574;BME280;10948;48.706;9.258;2023-08-30T10:38:12;97073.94;;;25.50;64.39
21574;BME280;10948;48.706;9.258;2023-08-30T10:40:44;97064.53;;;25.07;65.28
21574;BME280;10948;48.706;9.258;2023-08-30T10:43:11;97065.16;;;25.09;61.94
21574;BME280;10948;48.706;9.258;2023-08-30T10:45:36;97069.78;;;25.28;60.46
21574;BME280;10948;48.706;9.258;2023-08-30T10:48:01;97064.88;;;25.38;60.20
21574;BME280;10948;48.706;9.258;2023-08-30T10:50:28;97064.09;;;25.50;59.27
21574;BME280;10948;48.706;9.258;2023-08-30T10:52:54;97067.41;;;25.65;59.74
21574;BME280;10948;48.706;9.258;2023-08-30T10:55:21;97065.63;;;25.92;59.75
21574;BME280;10948;48.706;9.258;2023-08-30T10:57:57;97057.91;;;25.30;58.67
21574;BME280;10948;48.706;9.258;2023-08-30T11:00:22;97056.00;;;25.97;60.68
21574;BME280;10948;48.706;9.258;2023-08-30T11:02:48;97063.38;;;25.95;59.74
21574;BME280;10948;48.706;9.258;2023-08-30T11:05:15;97060.25;;;25.72;60.31
21574;BME280;10948;48.706;9.258;2023-08-30T11:07:40;97049.22;;;25.22;58.90
21574;BME280;10948;48.706;9.258;2023-08-30T11:10:05;97056.72;;;25.46;59.43
21574;BME280;10948;48.706;9.258;2023-08-30T11:12:34;97061.78;;;24.87;56.97
21574;BME280;10948;48.706;9.258;2023-08-30T11:14:59;97058.81;;;25.76;56.44
21574;BME280;10948;48.706;9.258;2023-08-30T11:17:25;97048.94;;;24.97;56.73
21574;BME280;10948;48.706;9.258;2023-08-30T11:19:51;97050.13;;;25.42;57.74
21574;BME280;10948;48.706;9.258;2023-08-30T11:22:22;97040.28;;;25.36;59.04
21574;BME280;10948;48.706;9.258;2023-08-30T11:24:47;97046.63;;;24.88;59.01
21574;BME280;10948;48.706;9.258;2023-08-30T11:27:15;97048.50;;;24.94;57.46
21574;BME280;10948;48.706;9.258;2023-08-30T11:29:41;97042.84;;;26.54;57.87
21574;BME280;10948;48.706;9.258;2023-08-30T11:32:07;97034.13;;;26.85;56.29
21574;BME280;10948;48.706;9.258;2023-08-30T11:34:32;97040.22;;;27.05;55.45
21574;BME280;10948;48.706;9.258;2023-08-30T11:36:58;97045.69;;;25.75;56.68
21574;BME280;10948;48.706;9.258;2023-08-30T11:39:23;97032.00;;;26.93;54.43
21574;BME280;10948;48.706;9.258;2023-08-30T11:41:49;97030.06;;;26.63;54.74
21574;BME280;10948;48.706;9.258;2023-08-30T11:44:15;97032.44;;;24.74;58.12
21574;BME280;10948;48.706;9.258;2023-08-30T11:46:41;97037.91;;;23.84;61.07
21574;BME280;10948;48.706;9.258;2023-08-30T11:49:07;97037.16;;;23.27;61.43
21574;BME280;10948;48.706;9.258;2023-08-30T11:51:32;97030.78;;;24.67;62.14
21574;BME280;10948;48.706;9.258;2023-08-30T11:53:58;97030.34;;;25.17;57.21
21574;BME280;10948;48.706;9.258;2023-08-30T11:56:23;97034.84;;;25.10;58.80
21574;BME280;10948;48.706;9.258;2023-08-30T11:58:49;97027.84;;;25.02;59.32
21574;BME280;10948;48.706;9.258;2023-08-30T12:01:14;97035.13;;;24.13;61.20
21574;BME280;10948;48.706;9.258;2023-08-30T12:03:40;97033.19;;;24.62;58.55
21574;BME280;10948;48.706;9.258;2023-08-30T12:06:11;97036.72;;;23.66;61.75
21574;BME280;10948;48.706;9.258;2023-08-30T12:08:37;97034.78;;;23.32;65.18
21574;BME280;10948;48.706;9.258;2023-08-30T12:11:02;97035.81;;;24.00;65.79
21574;BME280;10948;48.706;9.258;2023-08-30T12:13:29;97037.91;;;23.63;66.33
21574;BME280;10948;48.706;9.258;2023-08-30T12:15:56;97041.00;;;22.46;69.37
21574;BME280;10948;48.706;9.258;2023-08-30T12:18:28;97047.75;;;21.82;69.42
21574;BME280;10948;48.706;9.258;2023-08-30T12:21:03;97053.13;;;21.21;69.67
21574;BME280;10948;48.706;9.258;2023-08-30T12:23:29;97067.56;;;20.80;72.54
21574;BME280;10948;48.706;9.258;2023-08-30T12:26:08;97081.56;;;20.42;76.04
21574;BME280;10948;48.706;9.258;2023-08-30T12:28:37;97078.94;;;20.26;81.65
21574;BME280;10948;48.706;9.258;2023-08-30T12:31:02;97070.56;;;19.91;92.30
21574;BME280;10948;48.706;9.258;2023-08-30T12:33:32;97070.69;;;19.65;99.37
21574;BME280;10948;48.706;9.258;2023-08-30T12:35:58;97065.69;;;19.14;100.00
21574;BME280;10948;48.706;9.258;2023-08-30T12:38:23;97064.94;;;19.38;100.00
21574;BME280;10948;48.706;9.258;2023-08-30T12:40:50;97050.03;;;19.21;100.00
21574;BME280;10948;48.706;9.258;2023-08-30T12:43:16;97054.78;;;19.17;100.00
21574;BME280;10948;48.706;9.258;2023-08-30T12:45:41;97048.53;;;19.18;100.00
21574;BME280;10948;48.706;9.258;2023-08-30T12:48:07;97042.97;;;19.21;100.00
21574;BME280;10948;48.706;9.258;2023-08-30T12:50:33;97044.97;;;19.35;100.00
21574;BME280;10948;48.706;9.258;2023-08-30T12:52:59;97042.31;;;19.35;100.00
21574;BME280;10948;48.706;9.258;2023-08-30T12:55:24;97045.28;;;19.24;100.00